Time;durP1;ratioP1;P1;durP2;ratioP2;P2;SDS_P1;SDS_P2;PMS_P1;PMS_P2;Temp;Humidity;BMP_temperature;BMP_pressure;BME280_temperature;BME280_humidity;BME280_pressure;Samples;Min_cycle;Max_cycle;Signal;HPM_P1;HPM_P2
2023/02/16 00:00:49;;;;;;;0.47;0.47;;;;;;;5.90;97.18;101519.31;4965988;28;20031;-47
2023/02/16 00:03:20;;;;;;;0.30;0.30;;;;;;;5.85;97.54;101516.72;4952227;28;20022;-46
2023/02/16 00:05:46;;;;;;;1.55;1.17;;;;;;;5.87;97.63;101520.69;4946015;28;20038;-46
2023/02/16 00:08:12;;;;;;;0.50;0.50;;;;;;;5.91;97.49;101516.34;4958296;28;20089;-52
2023/02/16 00:10:38;;;;;;;0.45;0.45;;;;;;;5.91;97.66;101516.34;4959601;28;20734;-42
2023/02/16 00:13:51;;;;;;;0.47;0.47;;;;;;;5.94;97.73;101510.38;4955477;28;20089;-47
2023/02/16 00:16:22;;;;;;;0.30;0.30;;;;;;;5.97;96.92;101508.97;4958374;28;20031;-61
2023/02/16 00:18:48;;;;;;;0.30;0.30;;;;;;;5.93;97.71;101508.81;4961604;28;20058;-47
2023/02/16 00:21:14;;;;;;;0.30;0.30;;;;;;;5.92;97.27;101506.44;4960095;28;20039;-46
2023/02/16 00:23:40;;;;;;;0.45;0.45;;;;;;;5.88;97.80;101510.81;4957732;28;20035;-57
2023/02/16 00:26:14;;;;;;;0.20;0.20;;;;;;;5.89;97.41;101515.84;4955364;28;20045;-46
2023/02/16 00:28:40;;;;;;;2.42;0.75;;;;;;;5.87;97.55;101504.66;4961431;28;20161;-46
2023/02/16 00:31:05;;;;;;;0.40;0.40;;;;;;;5.88;97.71;101510.81;4945105;28;20114;-45
2023/02/16 00:33:33;;;;;;;0.30;0.30;;;;;;;5.87;97.47;101525.25;4965405;28;20043;-52
2023/02/16 00:35:59;;;;;;;0.22;0.22;;;;;;;5.90;98.07;101505.94;4949175;28;20041;-57
2023/02/16 00:38:24;;;;;;;0.22;0.22;;;;;;;5.91;97.97;101504.84;4964339;28;20069;-47
2023/02/16 00:40:49;;;;;;;0.30;0.30;;;;;;;5.95;98.30;101505.81;4939697;28;20031;-49
2023/02/16 00:43:27;;;;;;;0.35;0.35;;;;;;;5.98;97.76;101500.66;4953446;28;20121;-43
2023/02/16 00:45:55;;;;;;;0.40;0.40;;;;;;;5.93;98.06;101498.13;4955560;28;20510;-43
2023/02/16 00:48:21;;;;;;;0.20;0.20;;;;;;;5.91;98.06;101504.84;4942198;28;20113;-45
2023/02/16 00:50:47;;;;;;;0.60;0.60;;;;;;;5.87;98.40;101503.88;4952594;28;22616;-45
2023/02/16 00:53:16;;;;;;;0.52;0.52;;;;;;;5.82;98.62;101498.63;4954273;28;20579;-50
2023/02/16 00:55:43;;;;;;;0.30;0.30;;;;;;;5.86;98.12;101496.94;4948087;28;20034;-55
2023/02/16 00:58:24;;;;;;;2.10;0.65;;;;;;;5.85;98.38;101490.00;4933119;28;20023;-47
2023/02/16 01:00:53;;;;;;;0.50;0.50;;;;;;;5.93;98.07;101498.13;4964720;28;20031;-43
2023/02/16 01:03:25;;;;;;;0.30;0.30;;;;;;;5.89;98.31;101483.78;4938717;28;20027;-50
2023/02/16 01:11:22;;;;;;;0.70;0.70;;;;;;;5.95;98.81;101477.22;4955528;28;20039;-45
2023/02/16 01:13:49;;;;;;;0.50;0.50;;;;;;;6.01;98.55;101484.03;4939335;28;20034;-42
2023/02/16 01:16:32;;;;;;;0.52;0.52;;;;;;;6.05;98.60;101479.66;4948402;28;20031;-46
2023/02/16 01:18:57;;;;;;;0.43;0.43;;;;;;;6.06;98.24;101480.44;4940924;28;20089;-47
2023/02/16 01:21:23;;;;;;;1.25;1.23;;;;;;;6.08;98.61;101486.25;4937832;28;20035;-43
2023/02/16 01:23:48;;;;;;;0.95;0.95;;;;;;;6.13;98.30;101497.66;4941169;28;20034;-55
2023/02/16 01:26:16;;;;;;;0.30;0.30;;;;;;;6.18;97.88;101484.16;4951498;28;20110;-58
2023/02/16 01:28:45;;;;;;;0.50;0.50;;;;;;;6.21;97.77;101488.09;4951298;28;20038;-53
2023/02/16 01:31:12;;;;;;;0.28;0.28;;;;;;;6.25;98.31;101483.72;4951060;28;20725;-49
2023/02/16 01:33:38;;;;;;;0.80;0.80;;;;;;;6.26;97.40;101485.28;4969715;28;20089;-49
2023/02/16 01:36:04;;;;;;;0.40;0.40;;;;;;;6.28;97.52;101483.09;4964521;28;20081;-47
2023/02/16 01:38:30;;;;;;;0.50;0.50;;;;;;;6.21;98.33;101475.50;4973794;28;20034;-51
2023/02/16 01:41:25;;;;;;;0.63;0.63;;;;;;;6.21;98.29;101482.75;4949266;28;20023;-42
2023/02/16 01:44:28;;;;;;;0.40;0.40;;;;;;;6.20;97.72;101478.50;4962858;28;20066;-43
2023/02/16 01:47:00;;;;;;;0.40;0.40;;;;;;;6.23;97.78;101467.19;4893376;29;20043;-42
2023/02/16 01:49:26;;;;;;;;;;;;;;;6.18;98.41;101460.09;4951531;28;20081;-43
2023/02/16 01:51:57;;;;;;;0.30;0.30;;;;;;;6.24;97.91;101474.13;4953157;28;19924;-43
2023/02/16 01:54:31;;;;;;;0.30;0.30;;;;;;;6.37;97.20;101466.00;4952861;28;20039;-49
2023/02/16 01:57:32;;;;;;;0.35;0.35;;;;;;;6.39;97.40;101452.31;4968974;28;20029;-43
2023/02/16 02:00:03;;;;;;;0.47;0.47;;;;;;;6.36;97.61;101456.44;4946862;28;20041;-48
2023/02/16 02:02:44;;;;;;;1.48;0.77;;;;;;;6.29;97.65;101457.97;4941842;28;20533;-52
2023/02/16 02:05:36;;;;;;;0.40;0.40;;;;;;;6.45;98.00;101456.44;4951815;28;20397;-46
2023/02/16 02:08:17;;;;;;;0.30;0.30;;;;;;;6.38;98.27;101456.91;4951159;28;20390;-52
2023/02/16 02:10:58;;;;;;;;;;;;;;;6.43;98.04;101447.94;4954913;28;20026;-42
2023/02/16 02:13:44;;;;;;;0.40;0.40;;;;;;;6.42;97.66;101462.44;4936161;28;19913;-51
2023/02/16 02:16:11;;;;;;;0.65;0.65;;;;;;;6.52;97.63;101467.53;4968577;28;20034;-47
2023/02/16 02:18:37;;;;;;;0.30;0.30;;;;;;;6.62;96.90;101461.13;4955070;28;20503;-44
2023/02/16 02:24:51;;;;;;;0.30;0.30;;;;;;;6.49;97.84;101460.09;4942844;28;20043;-56
2023/02/16 02:27:33;;;;;;;0.60;0.60;;;;;;;6.52;96.99;101458.69;4950486;28;20034;-49
2023/02/16 02:30:23;;;;;;;0.60;0.60;;;;;;;6.54;97.54;101456.50;4952963;28;20050;-45
2023/02/16 02:33:28;;;;;;;0.22;0.22;;;;;;;6.46;96.98;101462.59;4964457;28;20035;-44
2023/02/16 02:36:14;;;;;;;0.30;0.30;;;;;;;6.44;97.47;101459.44;4942571;28;20042;-49
2023/02/16 02:39:26;;;;;;;0.43;0.43;;;;;;;6.39;97.53;101460.34;4971138;28;20061;-42
2023/02/16 02:42:03;;;;;;;0.30;0.30;;;;;;;6.38;97.38;101454.25;4917321;28;20122;-48
2023/02/16 02:44:41;;;;;;;0.30;0.30;;;;;;;6.44;97.09;101448.75;4954939;28;20429;-47
2023/02/16 02:47:07;;;;;;;0.65;0.40;;;;;;;6.45;97.25;101444.97;4969709;28;20041;-50
2023/02/16 02:49:32;;;;;;;0.30;0.30;;;;;;;6.47;96.56;101456.16;4972494;28;20409;-53
2023/02/16 02:51:58;;;;;;;0.20;0.20;;;;;;;6.39;97.37;101453.13;4961869;28;20577;-48
2023/02/16 03:03:07;;;;;;;0.30;0.30;;;;;;;6.26;97.15;101437.97;4942255;28;20031;-43
2023/02/16 03:05:37;;;;;;;0.70;0.70;;;;;;;6.28;96.28;101437.66;4944631;28;20536;-42
2023/02/16 03:08:13;;;;;;;0.30;0.30;;;;;;;6.32;96.12;101441.28;4965225;28;20046;-43
2023/02/16 03:13:32;;;;;;;0.55;0.55;;;;;;;6.39;96.10;101428.25;4956759;28;20030;-42
2023/02/16 03:16:00;;;;;;;;;;;;;;;6.33;96.74;101424.94;4955124;28;20027;-55
2023/02/16 03:29:32;;;;;;;0.50;0.50;;;;;;;6.50;95.55;101428.78;4964856;28;20042;-45
2023/02/16 03:31:58;;;;;;;0.40;0.40;;;;;;;6.52;95.40;101424.72;4972579;28;20034;-45
2023/02/16 03:34:24;;;;;;;0.30;0.30;;;;;;;6.47;95.13;101427.50;4938755;28;20070;-43
2023/02/16 03:36:57;;;;;;;0.30;0.30;;;;;;;6.51;95.71;101425.00;4954216;28;20069;-44
2023/02/16 03:39:28;;;;;;;0.88;0.88;;;;;;;6.53;95.40;101434.31;4956137;28;20398;-45
2023/02/16 03:41:55;;;;;;;0.68;0.68;;;;;;;6.57;95.00;101421.09;4955227;28;20035;-46
2023/02/16 03:44:21;;;;;;;0.45;0.45;;;;;;;6.55;94.65;101429.44;4955356;28;20098;-53
2023/02/16 03:46:50;;;;;;;0.40;0.40;;;;;;;6.54;94.70;101438.59;4959979;28;20031;-43
2023/02/16 03:49:19;;;;;;;1.13;0.75;;;;;;;6.43;95.08;101428.47;4954576;28;20526;-48
2023/02/16 03:51:44;;;;;;;0.40;0.40;;;;;;;6.46;94.77;101419.81;4963587;28;20381;-46
2023/02/16 03:54:11;;;;;;;0.30;0.30;;;;;;;6.50;95.16;101421.56;4950060;28;20031;-46
2023/02/16 03:56:36;;;;;;;0.47;0.47;;;;;;;6.41;94.87;101430.66;4950609;28;20054;-48
2023/02/16 03:59:02;;;;;;;0.30;0.30;;;;;;;6.47;94.76;101411.47;4952477;28;20074;-46
2023/02/16 04:01:27;;;;;;;0.40;0.40;;;;;;;6.42;94.57;101419.63;4954364;28;20050;-49
2023/02/16 04:03:53;;;;;;;0.80;0.70;;;;;;;6.40;94.91;101421.81;4956831;28;20038;-46
2023/02/16 04:06:18;;;;;;;0.85;0.85;;;;;;;6.51;94.10;101415.09;4950644;28;20035;-52
2023/02/16 04:08:44;;;;;;;0.50;0.50;;;;;;;6.46;94.34;101409.09;4962885;28;20039;-48
2023/02/16 04:14:13;;;;;;;0.75;0.75;;;;;;;6.33;95.02;101405.41;4906218;29;20098;-46
2023/02/16 04:16:39;;;;;;;0.30;0.30;;;;;;;6.29;94.42;101399.13;4910131;29;20513;-46
2023/02/16 04:19:06;;;;;;;0.30;0.30;;;;;;;6.34;94.62;101390.97;4899029;29;20451;-46
2023/02/16 04:21:31;;;;;;;0.45;0.45;;;;;;;6.26;94.27;101394.38;4903548;29;20040;-46
2023/02/16 04:23:57;;;;;;;1.55;0.63;;;;;;;6.31;94.58;101389.69;4903771;29;20095;-49
2023/02/16 04:26:22;;;;;;;0.38;0.38;;;;;;;6.28;94.01;101384.97;4881522;29;20041;-49
2023/02/16 04:28:48;;;;;;;0.68;0.68;;;;;;;6.22;94.63;101388.84;4903000;29;20059;-46
2023/02/16 04:31:13;;;;;;;0.35;0.35;;;;;;;6.21;95.00;101389.16;4892226;29;20044;-46
2023/02/16 04:33:39;;;;;;;0.55;0.55;;;;;;;6.29;93.93;101393.78;4894775;29;20044;-47
2023/02/16 04:36:05;;;;;;;0.50;0.50;;;;;;;6.43;93.59;101389.09;4893007;29;20056;-52
2023/02/16 04:38:30;;;;;;;0.68;0.55;;;;;;;6.34;94.12;101399.78;4891924;29;20055;-47
2023/02/16 04:40:55;;;;;;;0.75;0.75;;;;;;;6.24;94.48;101392.00;4888987;29;20047;-47
2023/02/16 04:43:21;;;;;;;0.30;0.30;;;;;;;6.23;94.05;101401.13;4901055;29;20040;-48
2023/02/16 04:45:46;;;;;;;0.40;0.40;;;;;;;6.26;94.48;101397.03;4897253;29;20150;-51
2023/02/16 04:48:12;;;;;;;0.20;0.20;;;;;;;6.26;94.55;101405.06;4903527;29;20063;-47
2023/02/16 04:50:37;;;;;;;0.55;0.55;;;;;;;6.28;94.47;101392.19;4927144;28;20058;-47
2023/02/16 04:53:03;;;;;;;0.40;0.40;;;;;;;6.31;94.01;101397.69;4961473;28;20045;-46
2023/02/16 04:55:29;;;;;;;0.30;0.30;;;;;;;6.27;93.83;101395.97;4949351;28;20046;-47
2023/02/16 04:57:55;;;;;;;0.20;0.20;;;;;;;6.27;94.00;101398.63;4964045;28;20041;-49
2023/02/16 05:00:21;;;;;;;0.55;0.55;;;;;;;6.32;93.45;101398.50;4961093;28;20047;-48
2023/02/16 05:02:46;;;;;;;0.82;0.82;;;;;;;6.16;94.02;101399.97;4958877;28;20027;-49
2023/02/16 05:05:12;;;;;;;0.40;0.40;;;;;;;6.26;94.27;101392.50;4957747;28;20482;-49
2023/02/16 05:07:38;;;;;;;0.55;0.55;;;;;;;6.27;93.55;101395.97;4954655;28;20089;-50
2023/02/16 05:10:04;;;;;;;0.45;0.45;;;;;;;6.20;93.53;101393.72;4961755;28;20126;-48
2023/02/16 05:15:14;;;;;;;0.40;0.40;;;;;;;6.33;93.36;101392.03;4963691;28;20035;-46
2023/02/16 05:17:39;;;;;;;0.40;0.40;;;;;;;6.27;93.76;101394.06;4941134;28;20031;-50
2023/02/16 05:20:05;;;;;;;0.35;0.35;;;;;;;6.27;93.65;101398.63;4963662;28;20039;-50
2023/02/16 05:22:33;;;;;;;0.32;0.32;;;;;;;6.28;93.85;101392.19;4961122;28;20051;-51
2023/02/16 05:24:59;;;;;;;0.30;0.30;;;;;;;6.31;92.96;101395.03;4956827;28;20046;-47
2023/02/16 05:27:27;;;;;;;0.40;0.40;;;;;;;6.23;93.25;101392.31;4961956;28;20035;-51
2023/02/16 05:29:52;;;;;;;0.50;0.50;;;;;;;6.18;93.75;101393.22;4971145;28;20035;-50
2023/02/16 05:32:18;;;;;;;0.75;0.75;;;;;;;6.22;93.91;101394.19;4964023;28;20027;-51
2023/02/16 05:34:44;;;;;;;0.30;0.30;;;;;;;6.20;93.44;101387.56;4944737;28;20067;-52
2023/02/16 05:37:11;;;;;;;0.30;0.30;;;;;;;6.17;93.51;101378.31;4966180;28;20439;-52
2023/02/16 05:39:36;;;;;;;0.63;0.63;;;;;;;6.18;94.15;101389.75;4970049;28;20117;-47
2023/02/16 05:42:02;;;;;;;0.30;0.30;;;;;;;6.24;93.72;101386.66;4951870;28;20113;-50
2023/02/16 05:44:28;;;;;;;0.68;0.68;;;;;;;6.15;93.50;101390.41;4961020;28;20091;-49
2023/02/16 05:46:53;;;;;;;0.50;0.50;;;;;;;6.17;93.84;101386.31;4969377;28;20026;-51
2023/02/16 05:49:19;;;;;;;0.30;0.30;;;;;;;6.21;93.47;101397.19;4963201;28;20049;-49
2023/02/16 05:51:45;;;;;;;0.30;0.30;;;;;;;6.33;93.46;101394.72;4929909;28;20062;-47
2023/02/16 05:54:15;;;;;;;0.20;0.20;;;;;;;6.29;93.56;101404.47;4949209;28;20135;-47
2023/02/16 05:56:43;;;;;;;0.57;0.57;;;;;;;6.19;92.83;101394.03;4956534;28;20093;-46
2023/02/16 05:59:09;;;;;;;0.30;0.30;;;;;;;6.22;92.86;101398.75;4938307;28;20042;-46
2023/02/16 06:01:34;;;;;;;0.25;0.25;;;;;;;6.29;93.13;101401.81;4958382;28;20023;-48
2023/02/16 06:04:00;;;;;;;0.40;0.40;;;;;;;6.14;93.61;101404.84;4947339;28;20073;-47
2023/02/16 06:06:25;;;;;;;0.30;0.30;;;;;;;6.22;93.49;101407.56;4948899;28;20043;-47
2023/02/16 06:08:50;;;;;;;0.30;0.30;;;;;;;6.25;93.10;101403.50;4964347;28;20066;-47
2023/02/16 06:14:01;;;;;;;0.52;0.52;;;;;;;6.25;92.93;101408.84;4964609;28;20038;-46
2023/02/16 06:16:30;;;;;;;0.32;0.32;;;;;;;6.28;93.02;101406.34;4962062;28;20059;-46
2023/02/16 06:18:56;;;;;;;1.33;1.33;;;;;;;6.17;93.41;101402.38;4967765;28;20038;-48
2023/02/16 06:21:22;;;;;;;0.40;0.40;;;;;;;6.03;93.07;101403.53;4966444;28;20038;-49
2023/02/16 06:23:48;;;;;;;0.22;0.22;;;;;;;6.07;93.85;101393.81;4964462;28;20482;-46
2023/02/16 06:26:14;;;;;;;0.30;0.30;;;;;;;5.99;93.71;101389.19;4963374;28;20114;-48
2023/02/16 06:28:39;;;;;;;0.20;0.20;;;;;;;6.05;94.17;101393.31;4963961;28;20046;-48
2023/02/16 06:31:05;;;;;;;0.40;0.40;;;;;;;6.19;93.32;101392.13;4957578;28;20026;-49
2023/02/16 06:33:31;;;;;;;0.40;0.40;;;;;;;6.16;93.60;101392.75;4950116;28;20090;-48
2023/02/16 06:35:57;;;;;;;0.40;0.40;;;;;;;6.13;93.11;101392.59;4959379;28;20019;-46
2023/02/16 06:38:22;;;;;;;0.40;0.40;;;;;;;6.09;93.33;101391.63;4963457;28;20529;-48
2023/02/16 06:40:53;;;;;;;0.52;0.52;;;;;;;6.11;93.38;101392.09;4940367;28;20058;-47
2023/02/16 06:43:19;;;;;;;0.47;0.47;;;;;;;6.28;91.72;101390.31;4961982;28;20865;-46
2023/02/16 06:45:45;;;;;;;0.38;0.38;;;;;;;6.21;92.46;101386.50;4962398;28;20074;-48
2023/02/16 06:48:11;;;;;;;4.65;0.63;;;;;;;6.19;92.41;101380.66;4959832;28;20040;-47
2023/02/16 06:50:36;;;;;;;0.38;0.38;;;;;;;6.22;92.47;101383.50;4964794;28;20448;-47
2023/02/16 06:53:02;;;;;;;0.43;0.43;;;;;;;6.25;93.06;101390.13;4967931;28;20122;-48
2023/02/16 06:55:29;;;;;;;0.60;0.60;;;;;;;6.16;93.44;101381.25;4962797;28;20058;-47
2023/02/16 06:57:55;;;;;;;1.20;1.20;;;;;;;6.22;93.65;101388.06;4956122;28;20377;-46
2023/02/16 07:00:21;;;;;;;1.15;1.15;;;;;;;6.22;93.37;101404.09;4958352;28;20035;-47
2023/02/16 07:02:46;;;;;;;0.68;0.68;;;;;;;6.33;93.51;101416.09;4964418;28;20063;-46
2023/02/16 07:05:12;;;;;;;0.38;0.38;;;;;;;6.37;93.35;101411.72;4962404;28;20065;-47
2023/02/16 07:07:37;;;;;;;0.30;0.30;;;;;;;6.59;92.45;101402.84;4962868;28;20055;-50
2023/02/16 07:10:03;;;;;;;0.50;0.50;;;;;;;6.53;92.04;101406.75;4963976;28;20117;-46
2023/02/16 07:12:29;;;;;;;0.30;0.30;;;;;;;6.51;92.98;101408.94;4949842;28;20038;-48
2023/02/16 07:14:54;;;;;;;0.22;0.22;;;;;;;6.51;92.50;101401.72;4961720;28;20062;-47
2023/02/16 07:17:19;;;;;;;0.30;0.30;;;;;;;6.49;92.51;101393.22;4961773;28;20279;-47
2023/02/16 07:19:45;;;;;;;0.43;0.43;;;;;;;6.58;92.70;101398.63;4934742;28;20519;-52
2023/02/16 07:22:11;;;;;;;0.50;0.50;;;;;;;6.51;93.04;101388.34;4952388;28;20035;-46
2023/02/16 07:24:36;;;;;;;0.20;0.20;;;;;;;6.65;92.44;101390.91;4960577;28;20474;-48
2023/02/16 07:27:04;;;;;;;0.28;0.28;;;;;;;6.68;92.61;101388.41;4958766;28;20085;-47
2023/02/16 07:29:29;;;;;;;0.40;0.40;;;;;;;6.64;91.68;101389.34;4959463;28;20050;-47
2023/02/16 07:31:56;;;;;;;0.50;0.50;;;;;;;6.72;91.92;101401.94;4952898;28;20035;-49
2023/02/16 07:34:22;;;;;;;0.60;0.60;;;;;;;6.66;92.06;101385.25;4960332;28;20146;-45
2023/02/16 07:36:48;;;;;;;0.32;0.32;;;;;;;6.69;92.64;101371.28;4957363;28;20114;-47
2023/02/16 07:39:13;;;;;;;0.85;0.85;;;;;;;6.88;91.43;101373.66;4935375;28;20063;-49
2023/02/16 07:41:39;;;;;;;0.47;0.47;;;;;;;6.90;91.40;101382.16;4950990;28;20034;-47
2023/02/16 07:44:06;;;;;;;0.70;0.70;;;;;;;6.89;91.59;101386.72;4943442;28;20389;-47
2023/02/16 07:46:32;;;;;;;0.43;0.43;;;;;;;6.82;91.83;101391.75;4960271;28;20049;-48
2023/02/16 07:48:57;;;;;;;0.40;0.40;;;;;;;6.92;91.32;101388.00;4963968;28;20038;-51
2023/02/16 07:51:25;;;;;;;1.10;1.10;;;;;;;7.05;90.85;101397.78;4966637;28;20504;-51
2023/02/16 07:53:51;;;;;;;0.30;0.30;;;;;;;7.01;90.78;101394.16;4961579;28;20045;-49
2023/02/16 07:56:22;;;;;;;0.30;0.30;;;;;;;7.01;90.98;101399.50;4947105;28;20390;-50
2023/02/16 07:58:50;;;;;;;0.50;0.50;;;;;;;6.95;90.65;101398.88;4960530;28;20039;-49
2023/02/16 08:01:16;;;;;;;0.57;0.57;;;;;;;7.06;91.01;101396.69;4962211;28;20390;-48
2023/02/16 08:03:42;;;;;;;0.57;0.57;;;;;;;7.05;91.03;101395.91;4941771;28;20031;-48
2023/02/16 08:06:08;;;;;;;0.73;0.73;;;;;;;7.08;91.11;101389.91;4966352;28;20027;-51
2023/02/16 08:08:34;;;;;;;0.70;0.70;;;;;;;7.12;90.79;101385.50;4964316;28;20039;-49
2023/02/16 08:10:59;;;;;;;0.70;0.70;;;;;;;7.01;91.12;101376.22;4960530;28;20046;-47
2023/02/16 08:13:25;;;;;;;0.35;0.35;;;;;;;7.18;90.92;101386.19;4960669;28;20035;-49
2023/02/16 08:15:50;;;;;;;0.30;0.30;;;;;;;7.24;90.81;101399.09;4958645;28;20058;-50
2023/02/16 08:18:16;;;;;;;0.47;0.47;;;;;;;7.26;90.63;101394.19;4963993;28;20125;-47
2023/02/16 08:20:42;;;;;;;0.45;0.45;;;;;;;7.27;90.58;101409.19;4961763;28;20035;-50
2023/02/16 08:23:09;;;;;;;0.55;0.55;;;;;;;7.33;90.31;101409.81;4957036;28;20429;-47
2023/02/16 08:25:36;;;;;;;0.38;0.38;;;;;;;7.35;90.83;101398.78;4957637;28;20030;-50
2023/02/16 08:28:02;;;;;;;0.70;0.70;;;;;;;7.43;90.36;101411.41;4956713;28;20386;-49
2023/02/16 08:30:27;;;;;;;0.30;0.30;;;;;;;7.45;90.66;101399.28;4957924;28;20035;-49
2023/02/16 08:32:55;;;;;;;0.50;0.50;;;;;;;7.48;89.92;101389.78;4929305;28;20042;-51
2023/02/16 08:35:21;;;;;;;0.50;0.50;;;;;;;7.44;90.45;101389.66;4951663;28;20457;-52
2023/02/16 08:37:46;;;;;;;0.30;0.30;;;;;;;7.56;90.53;101397.06;4933139;28;20157;-49
2023/02/16 08:40:12;;;;;;;0.70;0.70;;;;;;;7.65;90.14;101387.09;4957260;28;20106;-51
2023/02/16 08:42:38;;;;;;;0.75;0.75;;;;;;;7.60;90.17;101390.75;4954693;28;20023;-48
2023/02/16 08:45:05;;;;;;;0.30;0.30;;;;;;;7.65;90.50;101387.09;4963170;28;20573;-51
2023/02/16 08:47:31;;;;;;;0.43;0.43;;;;;;;7.71;90.14;101385.84;4938642;28;20030;-48
2023/02/16 08:49:57;;;;;;;0.73;0.65;;;;;;;7.70;89.39;101386.97;4947897;28;20035;-48
2023/02/16 08:52:23;;;;;;;0.77;0.77;;;;;;;7.82;90.09;101389.78;4957675;28;20046;-51
2023/02/16 08:54:48;;;;;;;0.20;0.20;;;;;;;7.93;89.19;101385.66;4951056;28;20521;-47
2023/02/16 08:57:14;;;;;;;0.25;0.25;;;;;;;7.91;88.97;101386.00;4950572;28;20041;-45
2023/02/16 08:59:40;;;;;;;0.40;0.40;;;;;;;7.89;89.17;101369.44;4959243;28;20034;-46
2023/02/16 09:02:06;;;;;;;0.73;0.73;;;;;;;7.97;89.11;101381.25;4958392;28;20467;-51
2023/02/16 09:04:32;;;;;;;0.50;0.50;;;;;;;8.03;88.42;101377.28;4956382;28;20028;-51
2023/02/16 09:06:58;;;;;;;0.52;0.52;;;;;;;8.11;88.79;101385.28;4943465;28;20066;-49
2023/02/16 09:09:25;;;;;;;0.28;0.28;;;;;;;8.17;88.29;101370.59;4951374;28;20034;-51
2023/02/16 09:11:50;;;;;;;0.50;0.50;;;;;;;8.18;87.91;101379.44;4958877;28;20125;-48
2023/02/16 09:14:17;;;;;;;0.43;0.43;;;;;;;8.20;88.03;101374.56;4957357;28;20121;-49
2023/02/16 09:16:46;;;;;;;0.20;0.20;;;;;;;8.23;87.63;101370.44;4950893;28;20086;-51
2023/02/16 09:19:17;;;;;;;0.95;0.95;;;;;;;8.26;88.00;101370.63;4950602;28;20065;-52
2023/02/16 09:21:43;;;;;;;0.75;0.75;;;;;;;8.19;88.60;101375.66;4940119;28;20461;-47
2023/02/16 09:24:11;;;;;;;0.35;0.35;;;;;;;8.23;88.62;101370.44;4961808;28;20047;-47
2023/02/16 09:26:41;;;;;;;0.50;0.50;;;;;;;8.23;88.26;101379.25;4950427;28;20650;-50
2023/02/16 09:29:07;;;;;;;0.63;0.40;;;;;;;8.37;88.07;101387.94;4952865;28;20029;-51
2023/02/16 09:31:35;;;;;;;0.77;0.35;;;;;;;8.37;87.94;101392.50;4952632;28;20048;-49
2023/02/16 09:34:05;;;;;;;0.85;0.60;;;;;;;8.37;87.96;101397.88;4957197;28;20060;-47
2023/02/16 09:36:31;;;;;;;0.30;0.30;;;;;;;8.35;87.80;101398.22;4936446;28;20027;-49
2023/02/16 09:38:57;;;;;;;0.50;0.50;;;;;;;8.54;87.76;101405.84;4959425;28;20482;-53
2023/02/16 09:41:39;;;;;;;0.47;0.47;;;;;;;8.53;88.04;101390.88;4955424;28;20038;-50
2023/02/16 09:44:33;;;;;;;0.55;0.55;;;;;;;8.51;87.93;101391.22;4952887;28;20398;-49
2023/02/16 09:47:02;;;;;;;0.20;0.20;;;;;;;8.55;87.81;101405.56;4940520;28;20035;-47
2023/02/16 09:49:45;;;;;;;1.05;0.75;;;;;;;8.62;87.78;101405.84;4947185;28;20395;-59
2023/02/16 09:52:32;;;;;;;0.20;0.20;;;;;;;8.56;88.02;101417.84;4942263;28;20093;-54
2023/02/16 09:55:00;;;;;;;3.60;0.50;;;;;;;8.67;87.50;101418.31;4958929;28;21514;-46
2023/02/16 09:57:59;;;;;;;0.65;0.65;;;;;;;8.79;87.08;101424.53;4952765;28;20098;-53
2023/02/16 10:00:31;;;;;;;0.25;0.25;;;;;;;8.89;86.79;101421.50;4950523;28;20435;-53
2023/02/16 10:02:59;;;;;;;;;;;;;;;8.98;86.65;101421.47;4961727;28;20068;-46
2023/02/16 10:05:35;;;;;;;0.30;0.30;;;;;;;8.94;86.76;101415.94;4936945;28;19917;-57
2023/02/16 10:08:10;;;;;;;0.90;0.90;;;;;;;8.90;86.85;101415.00;4957291;28;20035;-44
2023/02/16 10:10:41;;;;;;;0.40;0.40;;;;;;;8.86;86.97;101416.00;4954166;28;20521;-54
2023/02/16 10:13:11;;;;;;;;;;;;;;;8.94;87.32;101415.16;4950776;28;20086;-56
2023/02/16 10:15:42;;;;;;;0.98;0.98;;;;;;;8.95;86.99;101414.84;4954679;28;19913;-50
2023/02/16 10:18:24;;;;;;;0.50;0.50;;;;;;;9.13;86.42;101420.91;4956562;28;20172;-57
2023/02/16 10:20:55;;;;;;;0.52;0.52;;;;;;;9.09;86.31;101419.97;4944778;28;20532;-56
2023/02/16 10:23:51;;;;;;;0.50;0.50;;;;;;;9.21;86.20;101414.69;4959527;28;20689;-57
2023/02/16 10:26:21;;;;;;;0.38;0.38;;;;;;;9.21;86.56;101422.75;4949010;28;20306;-52
2023/02/16 10:28:49;;;;;;;0.40;0.40;;;;;;;9.18;86.99;101426.06;4943452;28;20099;-46
2023/02/16 10:31:26;;;;;;;0.20;0.20;;;;;;;9.35;86.65;101417.88;4937641;28;20379;-48
2023/02/16 10:34:27;;;;;;;1.25;0.98;;;;;;;9.36;86.88;101411.41;4955380;28;20027;-44
2023/02/16 10:37:01;;;;;;;0.30;0.30;;;;;;;9.37;87.67;101409.53;4950645;28;20038;-53
2023/02/16 10:39:33;;;;;;;0.55;0.55;;;;;;;9.62;86.83;101417.34;4952935;28;20424;-58
2023/02/16 10:42:43;;;;;;;0.40;0.40;;;;;;;9.87;85.79;101423.66;4942639;28;20027;-46
2023/02/16 10:45:34;;;;;;;0.52;0.52;;;;;;;9.92;85.42;101415.38;4917630;28;20465;-48
2023/02/16 10:48:00;;;;;;;0.40;0.40;;;;;;;9.99;85.81;101416.41;4956023;28;20027;-48
2023/02/16 10:50:42;;;;;;;1.05;1.05;;;;;;;9.82;86.58;101413.09;4944244;28;20046;-53
2023/02/16 10:53:12;;;;;;;;;;;;;;;9.85;87.23;101417.81;4938566;28;20045;-46
2023/02/16 10:55:38;;;;;;;0.80;0.80;;;;;;;9.80;87.91;101421.50;4953586;28;20404;-57
2023/02/16 10:58:03;;;;;;;0.55;0.55;;;;;;;9.82;87.80;101418.47;4953032;28;20031;-53
2023/02/16 11:00:47;;;;;;;0.43;0.43;;;;;;;9.77;89.07;101418.69;4959530;28;20039;-49
2023/02/16 11:03:14;;;;;;;0.65;0.65;;;;;;;9.73;89.72;101415.88;4957612;28;20034;-44
2023/02/16 11:05:41;;;;;;;0.22;0.22;;;;;;;9.79;89.72;101417.22;4931015;28;20031;-52
2023/02/16 11:08:11;;;;;;;2.50;1.85;;;;;;;9.89;89.84;101421.41;4960744;28;20394;-50
2023/02/16 11:10:47;;;;;;;0.20;0.20;;;;;;;9.98;89.55;101419.44;4944115;28;20054;-47
2023/02/16 11:13:33;;;;;;;0.22;0.22;;;;;;;9.91;89.70;101417.25;4957854;28;20041;-46
2023/02/16 11:16:08;;;;;;;0.35;0.35;;;;;;;10.03;89.43;101419.22;4956661;28;20479;-55
2023/02/16 11:18:43;;;;;;;0.30;0.30;;;;;;;10.00;90.24;101412.59;4955958;28;20031;-43
2023/02/16 11:21:11;;;;;;;1.20;1.15;;;;;;;10.14;89.32;101423.09;4958085;28;20074;-49
2023/02/16 11:23:41;;;;;;;0.20;0.20;;;;;;;10.19;89.46;101419.41;4957334;28;20065;-58
2023/02/16 11:26:10;;;;;;;0.43;0.43;;;;;;;9.93;90.91;101420.41;4944850;28;20530;-55
2023/02/16 11:28:45;;;;;;;0.40;0.40;;;;;;;9.99;90.32;101423.69;4966632;28;20062;-43
2023/02/16 11:31:29;;;;;;;0.30;0.30;;;;;;;10.13;90.04;101431.50;4951127;28;20049;-43
2023/02/16 11:34:00;;;;;;;0.75;0.75;;;;;;;10.11;90.18;101418.38;4956475;28;20587;-43
2023/02/16 11:36:48;;;;;;;0.35;0.30;;;;;;;10.02;90.66;101421.13;4960438;28;20086;-52
2023/02/16 11:39:23;;;;;;;0.60;0.60;;;;;;;10.08;90.26;101415.53;4881515;29;20058;-46
2023/02/16 11:41:51;;;;;;;0.32;0.32;;;;;;;10.02;90.85;101420.34;4884011;29;20044;-47
2023/02/16 11:44:42;;;;;;;0.55;0.55;;;;;;;10.15;90.95;101413.91;4887546;29;20203;-44
2023/02/16 11:47:31;;;;;;;0.38;0.38;;;;;;;10.22;90.18;101405.28;4885461;29;20043;-52
2023/02/16 11:50:21;;;;;;;0.93;0.93;;;;;;;10.25;90.22;101423.44;4866292;29;20060;-49
2023/02/16 11:52:49;;;;;;;1.25;1.17;;;;;;;10.23;89.79;101415.72;4886804;29;20036;-49
2023/02/16 11:55:33;;;;;;;0.30;0.30;;;;;;;10.24;89.69;101417.28;4887639;29;20092;-44
2023/02/16 11:58:23;;;;;;;2.08;0.75;;;;;;;10.05;90.75;101419.66;4887723;29;20193;-54
2023/02/16 12:01:07;;;;;;;0.35;0.35;;;;;;;10.11;90.58;101413.00;4869126;29;20558;-45
2023/02/16 12:03:58;;;;;;;0.30;0.30;;;;;;;10.32;89.49;101419.09;4886279;29;20047;-53
2023/02/16 12:06:47;;;;;;;0.47;0.47;;;;;;;10.10;90.66;101414.13;4881908;29;20159;-43
2023/02/16 12:09:21;;;;;;;0.90;0.90;;;;;;;10.19;90.22;101408.63;4886657;29;20060;-43
2023/02/16 12:11:58;;;;;;;0.30;0.30;;;;;;;10.26;90.04;101406.19;4889860;29;20037;-53
2023/02/16 12:14:38;;;;;;;0.17;0.17;;;;;;;10.33;89.23;101396.44;4865367;29;20496;-56
2023/02/16 12:17:43;;;;;;;0.82;0.82;;;;;;;10.30;89.49;101397.09;4944820;28;20035;-46
2023/02/16 12:20:32;;;;;;;0.20;0.20;;;;;;;10.32;89.18;101394.06;4958773;28;20034;-44
2023/02/16 12:23:12;;;;;;;0.30;0.30;;;;;;;10.13;90.29;101396.50;4957691;28;20462;-50
2023/02/16 12:25:43;;;;;;;0.15;0.15;;;;;;;10.15;90.61;101395.06;4960021;28;20505;-50
2023/02/16 12:28:21;;;;;;;0.38;0.38;;;;;;;10.14;90.86;101390.81;4945723;28;20046;-52
2023/02/16 12:31:04;;;;;;;0.10;0.10;;;;;;;10.27;90.09;101384.31;4958597;28;20072;-44